Página principal
METAR-TAF:

METAR-TAF

Aeroportos :

Aeroporto Internacional de Chongqing Jiangbei

Chongqing, China

latitude: 29-31N, longitude: 106-29E, altura: 351 m

Observação actual do tempo

O boletim foi feito há 46 minutos, às 10:00 UTC
Vento 8 kt de es-sudeste, variando entre este e sudeste
Temperatura 39°C
Humidade 33%
Pressão 999 hPa
Visibilidade 10 km ou mais
sem nuvens abaixo de 1500 metros e sem cumulonimbus

METAR: ZUCK 201000Z 11004MPS 080V140 CAVOK 39/20 Q0999 NOSIG

Hora: 18:46 (10:46 UTC)

Previsão

O boletim foi feito há 7 horas e 41 minutos, às 03:05 UTC
Previsão válida de 20 às 06 UTC a 21 às 06 UTC
Vento 8 kt de sudeste
Visibilidade: 6000 m
Nuvens dispersasa uma altura de 4000 ft

TAF: ZUCK 200305Z 2006/2106 13004MPS 6000 SCT040 TX40/2008Z TN30/2021Z

Observações e previsões do tempo de mais de 4000 aeroportos (mensagens METAR e TAF).

As estações disponíveis são os pontos amarelos e vermelhos sobre o mapa.

Mova o rato sobre o mapa para ver o nome da estação.

Depois clique no ponto para visualizar as observações e previsões meteorológicas.

Para alterar o mapa : clique nos botões verdes com uma cruz preta para aumentar o zoom; no botão verde com uma pitada de zoom; ou nas setas verdes para mapas adjacentes.


METAR-TAF: